<?xml version="1.0" encoding="UTF-8" standalone="no" ?>
<gpx xmlns="http://www.topografix.com/GPX/1/1" xmlns:xsi="http://www.w3.org/2001/XMLSchema-instance" xsi:schemaLocation="http://www.topografix.com/GPX/1/1 http://www.topografix.com/GPX/1/1/gpx.xsd" version="1.1" creator="VisuGPX - https://www.visugpx.com">
  <metadata>
    <name>Cuq - 10.2 km - 25-08-2022</name>
  </metadata>
  <trk>
    <name><![CDATA[Cuq - 10.0 km - 25-08-2022]]></name>
    <extensions>
      <line xmlns="http://www.topografix.com/GPX/gpx_style/0/2">
        <color>0000FF</color>
        <width>4</width>
      </line>
    </extensions>
    <trkseg>
      <trkpt lat="44.08399" lon="0.69866">
        <ele>153.2</ele>
        <time>2022-08-25T09:07:28+02:00</time>
      </trkpt>
      <trkpt lat="44.08383" lon="0.69869">
        <ele>154</ele>
        <time>2022-08-25T09:07:29+02:00</time>
      </trkpt>
      <trkpt lat="44.08396" lon="0.69878">
        <ele>154</ele>
        <time>2022-08-25T09:07:50+02:00</time>
      </trkpt>
      <trkpt lat="44.08408" lon="0.69885">
        <ele>152</ele>
        <time>2022-08-25T09:08:05+02:00</time>
      </trkpt>
      <trkpt lat="44.08419" lon="0.69897">
        <ele>152</ele>
        <time>2022-08-25T09:08:17+02:00</time>
      </trkpt>
      <trkpt lat="44.08431" lon="0.69908">
        <ele>152</ele>
        <time>2022-08-25T09:08:29+02:00</time>
      </trkpt>
      <trkpt lat="44.08444" lon="0.69919">
        <ele>151</ele>
        <time>2022-08-25T09:08:39+02:00</time>
      </trkpt>
      <trkpt lat="44.08456" lon="0.69928">
        <ele>150</ele>
        <time>2022-08-25T09:08:48+02:00</time>
      </trkpt>
      <trkpt lat="44.08468" lon="0.69942">
        <ele>149</ele>
        <time>2022-08-25T09:09:05+02:00</time>
      </trkpt>
      <trkpt lat="44.08482" lon="0.69941">
        <ele>148</ele>
        <time>2022-08-25T09:09:30+02:00</time>
      </trkpt>
      <trkpt lat="44.08496" lon="0.69945">
        <ele>146</ele>
        <time>2022-08-25T09:09:46+02:00</time>
      </trkpt>
      <trkpt lat="44.0851" lon="0.69943">
        <ele>146</ele>
        <time>2022-08-25T09:10:02+02:00</time>
      </trkpt>
      <trkpt lat="44.08522" lon="0.69932">
        <ele>146</ele>
        <time>2022-08-25T09:10:12+02:00</time>
      </trkpt>
      <trkpt lat="44.08535" lon="0.69923">
        <ele>145</ele>
        <time>2022-08-25T09:10:23+02:00</time>
      </trkpt>
      <trkpt lat="44.08548" lon="0.6992">
        <ele>146</ele>
        <time>2022-08-25T09:10:36+02:00</time>
      </trkpt>
      <trkpt lat="44.0856" lon="0.6991">
        <ele>146</ele>
        <time>2022-08-25T09:10:48+02:00</time>
      </trkpt>
      <trkpt lat="44.08574" lon="0.69907">
        <ele>146</ele>
        <time>2022-08-25T09:11:00+02:00</time>
      </trkpt>
      <trkpt lat="44.08588" lon="0.69906">
        <ele>146</ele>
        <time>2022-08-25T09:11:22+02:00</time>
      </trkpt>
      <trkpt lat="44.086" lon="0.69914">
        <ele>146</ele>
        <time>2022-08-25T09:11:33+02:00</time>
      </trkpt>
      <trkpt lat="44.08611" lon="0.69927">
        <ele>145</ele>
        <time>2022-08-25T09:11:44+02:00</time>
      </trkpt>
      <trkpt lat="44.08621" lon="0.69942">
        <ele>144</ele>
        <time>2022-08-25T09:11:57+02:00</time>
      </trkpt>
      <trkpt lat="44.08632" lon="0.69956">
        <ele>143</ele>
        <time>2022-08-25T09:12:09+02:00</time>
      </trkpt>
      <trkpt lat="44.08641" lon="0.6997">
        <ele>142</ele>
        <time>2022-08-25T09:12:19+02:00</time>
      </trkpt>
      <trkpt lat="44.08654" lon="0.69986">
        <ele>141</ele>
        <time>2022-08-25T09:12:27+02:00</time>
      </trkpt>
      <trkpt lat="44.08663" lon="0.70003">
        <ele>140</ele>
        <time>2022-08-25T09:12:35+02:00</time>
      </trkpt>
      <trkpt lat="44.0867" lon="0.7002">
        <ele>139</ele>
        <time>2022-08-25T09:12:46+02:00</time>
      </trkpt>
      <trkpt lat="44.08684" lon="0.7002">
        <ele>139</ele>
        <time>2022-08-25T09:13:16+02:00</time>
      </trkpt>
      <trkpt lat="44.08694" lon="0.70004">
        <ele>139</ele>
        <time>2022-08-25T09:13:30+02:00</time>
      </trkpt>
      <trkpt lat="44.08702" lon="0.69988">
        <ele>139</ele>
        <time>2022-08-25T09:13:43+02:00</time>
      </trkpt>
      <trkpt lat="44.08712" lon="0.69975">
        <ele>139</ele>
        <time>2022-08-25T09:13:55+02:00</time>
      </trkpt>
      <trkpt lat="44.08722" lon="0.69963">
        <ele>139</ele>
        <time>2022-08-25T09:14:07+02:00</time>
      </trkpt>
      <trkpt lat="44.08731" lon="0.69948">
        <ele>139</ele>
        <time>2022-08-25T09:14:18+02:00</time>
      </trkpt>
      <trkpt lat="44.08743" lon="0.69937">
        <ele>139</ele>
        <time>2022-08-25T09:14:30+02:00</time>
      </trkpt>
      <trkpt lat="44.08754" lon="0.69925">
        <ele>139</ele>
        <time>2022-08-25T09:14:41+02:00</time>
      </trkpt>
      <trkpt lat="44.08767" lon="0.69916">
        <ele>139</ele>
        <time>2022-08-25T09:14:53+02:00</time>
      </trkpt>
      <trkpt lat="44.0878" lon="0.69909">
        <ele>139</ele>
        <time>2022-08-25T09:15:03+02:00</time>
      </trkpt>
      <trkpt lat="44.08791" lon="0.69898">
        <ele>140</ele>
        <time>2022-08-25T09:15:14+02:00</time>
      </trkpt>
      <trkpt lat="44.08805" lon="0.69893">
        <ele>140</ele>
        <time>2022-08-25T09:15:25+02:00</time>
      </trkpt>
      <trkpt lat="44.08817" lon="0.69886">
        <ele>140</ele>
        <time>2022-08-25T09:15:36+02:00</time>
      </trkpt>
      <trkpt lat="44.08831" lon="0.69878">
        <ele>140</ele>
        <time>2022-08-25T09:15:46+02:00</time>
      </trkpt>
      <trkpt lat="44.08845" lon="0.69872">
        <ele>140</ele>
        <time>2022-08-25T09:15:57+02:00</time>
      </trkpt>
      <trkpt lat="44.08858" lon="0.69865">
        <ele>140</ele>
        <time>2022-08-25T09:16:08+02:00</time>
      </trkpt>
      <trkpt lat="44.08872" lon="0.69863">
        <ele>141</ele>
        <time>2022-08-25T09:16:20+02:00</time>
      </trkpt>
      <trkpt lat="44.08885" lon="0.69856">
        <ele>141</ele>
        <time>2022-08-25T09:16:31+02:00</time>
      </trkpt>
      <trkpt lat="44.08899" lon="0.6985">
        <ele>141</ele>
        <time>2022-08-25T09:16:41+02:00</time>
      </trkpt>
      <trkpt lat="44.08912" lon="0.69843">
        <ele>142</ele>
        <time>2022-08-25T09:16:52+02:00</time>
      </trkpt>
      <trkpt lat="44.08925" lon="0.69837">
        <ele>142</ele>
        <time>2022-08-25T09:17:02+02:00</time>
      </trkpt>
      <trkpt lat="44.08931" lon="0.69818">
        <ele>142</ele>
        <time>2022-08-25T09:17:19+02:00</time>
      </trkpt>
      <trkpt lat="44.08922" lon="0.69803">
        <ele>143</ele>
        <time>2022-08-25T09:17:30+02:00</time>
      </trkpt>
      <trkpt lat="44.08917" lon="0.69783">
        <ele>143</ele>
        <time>2022-08-25T09:17:53+02:00</time>
      </trkpt>
      <trkpt lat="44.08913" lon="0.69765">
        <ele>144</ele>
        <time>2022-08-25T09:18:04+02:00</time>
      </trkpt>
      <trkpt lat="44.08907" lon="0.69746">
        <ele>144</ele>
        <time>2022-08-25T09:18:19+02:00</time>
      </trkpt>
      <trkpt lat="44.08902" lon="0.69728">
        <ele>145</ele>
        <time>2022-08-25T09:18:32+02:00</time>
      </trkpt>
      <trkpt lat="44.08896" lon="0.69711">
        <ele>145</ele>
        <time>2022-08-25T09:18:43+02:00</time>
      </trkpt>
      <trkpt lat="44.08891" lon="0.69694">
        <ele>146</ele>
        <time>2022-08-25T09:18:55+02:00</time>
      </trkpt>
      <trkpt lat="44.08885" lon="0.69675">
        <ele>146</ele>
        <time>2022-08-25T09:19:08+02:00</time>
      </trkpt>
      <trkpt lat="44.08878" lon="0.69659">
        <ele>146</ele>
        <time>2022-08-25T09:19:19+02:00</time>
      </trkpt>
      <trkpt lat="44.08874" lon="0.69641">
        <ele>145</ele>
        <time>2022-08-25T09:19:30+02:00</time>
      </trkpt>
      <trkpt lat="44.08872" lon="0.69622">
        <ele>144</ele>
        <time>2022-08-25T09:19:39+02:00</time>
      </trkpt>
      <trkpt lat="44.08866" lon="0.69605">
        <ele>144</ele>
        <time>2022-08-25T09:19:55+02:00</time>
      </trkpt>
      <trkpt lat="44.0886" lon="0.69567">
        <ele>142</ele>
        <time>2022-08-25T09:20:19+02:00</time>
      </trkpt>
      <trkpt lat="44.08857" lon="0.69548">
        <ele>141</ele>
        <time>2022-08-25T09:20:32+02:00</time>
      </trkpt>
      <trkpt lat="44.08854" lon="0.69529">
        <ele>140</ele>
        <time>2022-08-25T09:20:46+02:00</time>
      </trkpt>
      <trkpt lat="44.08852" lon="0.6951">
        <ele>138</ele>
        <time>2022-08-25T09:20:59+02:00</time>
      </trkpt>
      <trkpt lat="44.08848" lon="0.69491">
        <ele>137</ele>
        <time>2022-08-25T09:21:11+02:00</time>
      </trkpt>
      <trkpt lat="44.08848" lon="0.6947">
        <ele>135</ele>
        <time>2022-08-25T09:21:24+02:00</time>
      </trkpt>
      <trkpt lat="44.08844" lon="0.69451">
        <ele>133</ele>
        <time>2022-08-25T09:21:37+02:00</time>
      </trkpt>
      <trkpt lat="44.08839" lon="0.69432">
        <ele>132</ele>
        <time>2022-08-25T09:21:48+02:00</time>
      </trkpt>
      <trkpt lat="44.08837" lon="0.69413">
        <ele>130</ele>
        <time>2022-08-25T09:22:00+02:00</time>
      </trkpt>
      <trkpt lat="44.08836" lon="0.69393">
        <ele>128</ele>
        <time>2022-08-25T09:22:13+02:00</time>
      </trkpt>
      <trkpt lat="44.08832" lon="0.69375">
        <ele>126</ele>
        <time>2022-08-25T09:22:23+02:00</time>
      </trkpt>
      <trkpt lat="44.08827" lon="0.69356">
        <ele>124</ele>
        <time>2022-08-25T09:22:34+02:00</time>
      </trkpt>
      <trkpt lat="44.08826" lon="0.69337">
        <ele>122</ele>
        <time>2022-08-25T09:22:45+02:00</time>
      </trkpt>
      <trkpt lat="44.08822" lon="0.69318">
        <ele>120</ele>
        <time>2022-08-25T09:22:58+02:00</time>
      </trkpt>
      <trkpt lat="44.08816" lon="0.693">
        <ele>119</ele>
        <time>2022-08-25T09:23:14+02:00</time>
      </trkpt>
      <trkpt lat="44.0881" lon="0.69282">
        <ele>118</ele>
        <time>2022-08-25T09:23:25+02:00</time>
      </trkpt>
      <trkpt lat="44.08804" lon="0.69265">
        <ele>117</ele>
        <time>2022-08-25T09:23:38+02:00</time>
      </trkpt>
      <trkpt lat="44.08802" lon="0.69245">
        <ele>115</ele>
        <time>2022-08-25T09:23:51+02:00</time>
      </trkpt>
      <trkpt lat="44.08801" lon="0.69225">
        <ele>114</ele>
        <time>2022-08-25T09:24:02+02:00</time>
      </trkpt>
      <trkpt lat="44.08797" lon="0.69206">
        <ele>112</ele>
        <time>2022-08-25T09:24:22+02:00</time>
      </trkpt>
      <trkpt lat="44.08793" lon="0.69187">
        <ele>110</ele>
        <time>2022-08-25T09:24:34+02:00</time>
      </trkpt>
      <trkpt lat="44.0879" lon="0.69168">
        <ele>109</ele>
        <time>2022-08-25T09:24:47+02:00</time>
      </trkpt>
      <trkpt lat="44.0879" lon="0.69149">
        <ele>107</ele>
        <time>2022-08-25T09:24:58+02:00</time>
      </trkpt>
      <trkpt lat="44.08787" lon="0.6913">
        <ele>105</ele>
        <time>2022-08-25T09:25:10+02:00</time>
      </trkpt>
      <trkpt lat="44.08785" lon="0.69111">
        <ele>103</ele>
        <time>2022-08-25T09:25:21+02:00</time>
      </trkpt>
      <trkpt lat="44.08784" lon="0.69092">
        <ele>101</ele>
        <time>2022-08-25T09:25:33+02:00</time>
      </trkpt>
      <trkpt lat="44.08781" lon="0.69055">
        <ele>98</ele>
        <time>2022-08-25T09:25:56+02:00</time>
      </trkpt>
      <trkpt lat="44.08777" lon="0.69036">
        <ele>97</ele>
        <time>2022-08-25T09:26:10+02:00</time>
      </trkpt>
      <trkpt lat="44.08776" lon="0.69015">
        <ele>95</ele>
        <time>2022-08-25T09:26:43+02:00</time>
      </trkpt>
      <trkpt lat="44.08787" lon="0.69003">
        <ele>95</ele>
        <time>2022-08-25T09:26:58+02:00</time>
      </trkpt>
      <trkpt lat="44.088" lon="0.68994">
        <ele>94</ele>
        <time>2022-08-25T09:27:12+02:00</time>
      </trkpt>
      <trkpt lat="44.08811" lon="0.68983">
        <ele>94</ele>
        <time>2022-08-25T09:28:46+02:00</time>
      </trkpt>
      <trkpt lat="44.08824" lon="0.68973">
        <ele>94</ele>
        <time>2022-08-25T09:28:58+02:00</time>
      </trkpt>
      <trkpt lat="44.08836" lon="0.68963">
        <ele>94</ele>
        <time>2022-08-25T09:29:13+02:00</time>
      </trkpt>
      <trkpt lat="44.08849" lon="0.68957">
        <ele>94</ele>
        <time>2022-08-25T09:29:25+02:00</time>
      </trkpt>
      <trkpt lat="44.08862" lon="0.68945">
        <ele>93</ele>
        <time>2022-08-25T09:29:36+02:00</time>
      </trkpt>
      <trkpt lat="44.08875" lon="0.68937">
        <ele>93</ele>
        <time>2022-08-25T09:29:48+02:00</time>
      </trkpt>
      <trkpt lat="44.08887" lon="0.68929">
        <ele>92</ele>
        <time>2022-08-25T09:30:03+02:00</time>
      </trkpt>
      <trkpt lat="44.08898" lon="0.68917">
        <ele>91</ele>
        <time>2022-08-25T09:30:15+02:00</time>
      </trkpt>
      <trkpt lat="44.08905" lon="0.68901">
        <ele>91</ele>
        <time>2022-08-25T09:30:25+02:00</time>
      </trkpt>
      <trkpt lat="44.08911" lon="0.68883">
        <ele>90</ele>
        <time>2022-08-25T09:30:36+02:00</time>
      </trkpt>
      <trkpt lat="44.08919" lon="0.68865">
        <ele>90</ele>
        <time>2022-08-25T09:30:49+02:00</time>
      </trkpt>
      <trkpt lat="44.08926" lon="0.68849">
        <ele>89</ele>
        <time>2022-08-25T09:30:58+02:00</time>
      </trkpt>
      <trkpt lat="44.08935" lon="0.68834">
        <ele>88</ele>
        <time>2022-08-25T09:31:10+02:00</time>
      </trkpt>
      <trkpt lat="44.08944" lon="0.68818">
        <ele>88</ele>
        <time>2022-08-25T09:31:21+02:00</time>
      </trkpt>
      <trkpt lat="44.08933" lon="0.68805">
        <ele>89</ele>
        <time>2022-08-25T09:31:37+02:00</time>
      </trkpt>
      <trkpt lat="44.08919" lon="0.68806">
        <ele>90</ele>
        <time>2022-08-25T09:31:48+02:00</time>
      </trkpt>
      <trkpt lat="44.08917" lon="0.68787">
        <ele>91</ele>
        <time>2022-08-25T09:32:04+02:00</time>
      </trkpt>
      <trkpt lat="44.08924" lon="0.6877">
        <ele>91</ele>
        <time>2022-08-25T09:32:21+02:00</time>
      </trkpt>
      <trkpt lat="44.08932" lon="0.68753">
        <ele>92</ele>
        <time>2022-08-25T09:32:31+02:00</time>
      </trkpt>
      <trkpt lat="44.08941" lon="0.68737">
        <ele>93</ele>
        <time>2022-08-25T09:32:44+02:00</time>
      </trkpt>
      <trkpt lat="44.08949" lon="0.68721">
        <ele>94</ele>
        <time>2022-08-25T09:32:56+02:00</time>
      </trkpt>
      <trkpt lat="44.08957" lon="0.68704">
        <ele>95</ele>
        <time>2022-08-25T09:33:06+02:00</time>
      </trkpt>
      <trkpt lat="44.08965" lon="0.68689">
        <ele>97</ele>
        <time>2022-08-25T09:33:17+02:00</time>
      </trkpt>
      <trkpt lat="44.08967" lon="0.6867">
        <ele>99</ele>
        <time>2022-08-25T09:33:31+02:00</time>
      </trkpt>
      <trkpt lat="44.08969" lon="0.68651">
        <ele>99</ele>
        <time>2022-08-25T09:33:43+02:00</time>
      </trkpt>
      <trkpt lat="44.08972" lon="0.68633">
        <ele>100</ele>
        <time>2022-08-25T09:33:53+02:00</time>
      </trkpt>
      <trkpt lat="44.08972" lon="0.68614">
        <ele>101</ele>
        <time>2022-08-25T09:34:03+02:00</time>
      </trkpt>
      <trkpt lat="44.08974" lon="0.68595">
        <ele>101</ele>
        <time>2022-08-25T09:34:14+02:00</time>
      </trkpt>
      <trkpt lat="44.08976" lon="0.68575">
        <ele>102</ele>
        <time>2022-08-25T09:34:30+02:00</time>
      </trkpt>
      <trkpt lat="44.08981" lon="0.68538">
        <ele>103</ele>
        <time>2022-08-25T09:34:58+02:00</time>
      </trkpt>
      <trkpt lat="44.08983" lon="0.68519">
        <ele>103</ele>
        <time>2022-08-25T09:35:09+02:00</time>
      </trkpt>
      <trkpt lat="44.08986" lon="0.68499">
        <ele>103</ele>
        <time>2022-08-25T09:35:22+02:00</time>
      </trkpt>
      <trkpt lat="44.08989" lon="0.6848">
        <ele>105</ele>
        <time>2022-08-25T09:35:33+02:00</time>
      </trkpt>
      <trkpt lat="44.08999" lon="0.68465">
        <ele>106</ele>
        <time>2022-08-25T09:35:46+02:00</time>
      </trkpt>
      <trkpt lat="44.09005" lon="0.68448">
        <ele>108</ele>
        <time>2022-08-25T09:36:01+02:00</time>
      </trkpt>
      <trkpt lat="44.09012" lon="0.68431">
        <ele>109</ele>
        <time>2022-08-25T09:36:14+02:00</time>
      </trkpt>
      <trkpt lat="44.09017" lon="0.68413">
        <ele>110</ele>
        <time>2022-08-25T09:36:25+02:00</time>
      </trkpt>
      <trkpt lat="44.09025" lon="0.68398">
        <ele>111</ele>
        <time>2022-08-25T09:36:36+02:00</time>
      </trkpt>
      <trkpt lat="44.09036" lon="0.68363">
        <ele>113</ele>
        <time>2022-08-25T09:37:09+02:00</time>
      </trkpt>
      <trkpt lat="44.09044" lon="0.68348">
        <ele>114</ele>
        <time>2022-08-25T09:37:23+02:00</time>
      </trkpt>
      <trkpt lat="44.09051" lon="0.68331">
        <ele>115</ele>
        <time>2022-08-25T09:37:37+02:00</time>
      </trkpt>
      <trkpt lat="44.09056" lon="0.68314">
        <ele>116</ele>
        <time>2022-08-25T09:37:50+02:00</time>
      </trkpt>
      <trkpt lat="44.09062" lon="0.68297">
        <ele>117</ele>
        <time>2022-08-25T09:38:02+02:00</time>
      </trkpt>
      <trkpt lat="44.09071" lon="0.68281">
        <ele>118</ele>
        <time>2022-08-25T09:38:15+02:00</time>
      </trkpt>
      <trkpt lat="44.09079" lon="0.68266">
        <ele>120</ele>
        <time>2022-08-25T09:38:26+02:00</time>
      </trkpt>
      <trkpt lat="44.09085" lon="0.68249">
        <ele>121</ele>
        <time>2022-08-25T09:38:39+02:00</time>
      </trkpt>
      <trkpt lat="44.0909" lon="0.68231">
        <ele>122</ele>
        <time>2022-08-25T09:38:50+02:00</time>
      </trkpt>
      <trkpt lat="44.09097" lon="0.68213">
        <ele>123</ele>
        <time>2022-08-25T09:39:01+02:00</time>
      </trkpt>
      <trkpt lat="44.09097" lon="0.68194">
        <ele>124</ele>
        <time>2022-08-25T09:39:27+02:00</time>
      </trkpt>
      <trkpt lat="44.09104" lon="0.68177">
        <ele>125</ele>
        <time>2022-08-25T09:40:59+02:00</time>
      </trkpt>
      <trkpt lat="44.09108" lon="0.68158">
        <ele>127</ele>
        <time>2022-08-25T09:42:05+02:00</time>
      </trkpt>
      <trkpt lat="44.09117" lon="0.68144">
        <ele>128</ele>
        <time>2022-08-25T09:42:17+02:00</time>
      </trkpt>
      <trkpt lat="44.09123" lon="0.68127">
        <ele>130</ele>
        <time>2022-08-25T09:42:50+02:00</time>
      </trkpt>
      <trkpt lat="44.09119" lon="0.68109">
        <ele>130</ele>
        <time>2022-08-25T09:43:07+02:00</time>
      </trkpt>
      <trkpt lat="44.09106" lon="0.68101">
        <ele>130</ele>
        <time>2022-08-25T09:43:44+02:00</time>
      </trkpt>
      <trkpt lat="44.09093" lon="0.68093">
        <ele>129</ele>
        <time>2022-08-25T09:44:18+02:00</time>
      </trkpt>
      <trkpt lat="44.09081" lon="0.68083">
        <ele>129</ele>
        <time>2022-08-25T09:44:35+02:00</time>
      </trkpt>
      <trkpt lat="44.09069" lon="0.68073">
        <ele>128</ele>
        <time>2022-08-25T09:44:47+02:00</time>
      </trkpt>
      <trkpt lat="44.09056" lon="0.68065">
        <ele>128</ele>
        <time>2022-08-25T09:44:59+02:00</time>
      </trkpt>
      <trkpt lat="44.09042" lon="0.6806">
        <ele>127</ele>
        <time>2022-08-25T09:45:11+02:00</time>
      </trkpt>
      <trkpt lat="44.09028" lon="0.68057">
        <ele>126</ele>
        <time>2022-08-25T09:45:22+02:00</time>
      </trkpt>
      <trkpt lat="44.09018" lon="0.68043">
        <ele>126</ele>
        <time>2022-08-25T09:45:38+02:00</time>
      </trkpt>
      <trkpt lat="44.09012" lon="0.68026">
        <ele>127</ele>
        <time>2022-08-25T09:45:50+02:00</time>
      </trkpt>
      <trkpt lat="44.09001" lon="0.68014">
        <ele>128</ele>
        <time>2022-08-25T09:46:05+02:00</time>
      </trkpt>
      <trkpt lat="44.08991" lon="0.68001">
        <ele>129</ele>
        <time>2022-08-25T09:46:19+02:00</time>
      </trkpt>
      <trkpt lat="44.0899" lon="0.67981">
        <ele>130</ele>
        <time>2022-08-25T09:46:34+02:00</time>
      </trkpt>
      <trkpt lat="44.08998" lon="0.67965">
        <ele>131</ele>
        <time>2022-08-25T09:46:54+02:00</time>
      </trkpt>
      <trkpt lat="44.09001" lon="0.67946">
        <ele>133</ele>
        <time>2022-08-25T09:47:10+02:00</time>
      </trkpt>
      <trkpt lat="44.09005" lon="0.67928">
        <ele>134</ele>
        <time>2022-08-25T09:47:24+02:00</time>
      </trkpt>
      <trkpt lat="44.09014" lon="0.67912">
        <ele>135</ele>
        <time>2022-08-25T09:47:36+02:00</time>
      </trkpt>
      <trkpt lat="44.09028" lon="0.67906">
        <ele>136</ele>
        <time>2022-08-25T09:47:50+02:00</time>
      </trkpt>
      <trkpt lat="44.09042" lon="0.67908">
        <ele>136</ele>
        <time>2022-08-25T09:48:06+02:00</time>
      </trkpt>
      <trkpt lat="44.09055" lon="0.67902">
        <ele>136</ele>
        <time>2022-08-25T09:48:19+02:00</time>
      </trkpt>
      <trkpt lat="44.0907" lon="0.67907">
        <ele>136</ele>
        <time>2022-08-25T09:48:31+02:00</time>
      </trkpt>
      <trkpt lat="44.09084" lon="0.67905">
        <ele>137</ele>
        <time>2022-08-25T09:48:45+02:00</time>
      </trkpt>
      <trkpt lat="44.09098" lon="0.67904">
        <ele>137</ele>
        <time>2022-08-25T09:48:57+02:00</time>
      </trkpt>
      <trkpt lat="44.0911" lon="0.67914">
        <ele>138</ele>
        <time>2022-08-25T09:49:08+02:00</time>
      </trkpt>
      <trkpt lat="44.09124" lon="0.67917">
        <ele>138</ele>
        <time>2022-08-25T09:49:17+02:00</time>
      </trkpt>
      <trkpt lat="44.09138" lon="0.67923">
        <ele>139</ele>
        <time>2022-08-25T09:49:27+02:00</time>
      </trkpt>
      <trkpt lat="44.09152" lon="0.67926">
        <ele>140</ele>
        <time>2022-08-25T09:49:35+02:00</time>
      </trkpt>
      <trkpt lat="44.09165" lon="0.67933">
        <ele>141</ele>
        <time>2022-08-25T09:49:49+02:00</time>
      </trkpt>
      <trkpt lat="44.09172" lon="0.67917">
        <ele>141</ele>
        <time>2022-08-25T09:50:59+02:00</time>
      </trkpt>
      <trkpt lat="44.09175" lon="0.67898">
        <ele>142</ele>
        <time>2022-08-25T09:51:12+02:00</time>
      </trkpt>
      <trkpt lat="44.09178" lon="0.67878">
        <ele>143</ele>
        <time>2022-08-25T09:51:26+02:00</time>
      </trkpt>
      <trkpt lat="44.09179" lon="0.67859">
        <ele>144</ele>
        <time>2022-08-25T09:51:40+02:00</time>
      </trkpt>
      <trkpt lat="44.09182" lon="0.67821">
        <ele>146</ele>
        <time>2022-08-25T09:52:04+02:00</time>
      </trkpt>
      <trkpt lat="44.09184" lon="0.67802">
        <ele>147</ele>
        <time>2022-08-25T09:52:15+02:00</time>
      </trkpt>
      <trkpt lat="44.09186" lon="0.67782">
        <ele>149</ele>
        <time>2022-08-25T09:52:26+02:00</time>
      </trkpt>
      <trkpt lat="44.09189" lon="0.67762">
        <ele>150</ele>
        <time>2022-08-25T09:52:37+02:00</time>
      </trkpt>
      <trkpt lat="44.09189" lon="0.67743">
        <ele>151</ele>
        <time>2022-08-25T09:52:47+02:00</time>
      </trkpt>
      <trkpt lat="44.09191" lon="0.67722">
        <ele>152</ele>
        <time>2022-08-25T09:53:06+02:00</time>
      </trkpt>
      <trkpt lat="44.09191" lon="0.67703">
        <ele>153</ele>
        <time>2022-08-25T09:53:19+02:00</time>
      </trkpt>
      <trkpt lat="44.09189" lon="0.67684">
        <ele>154</ele>
        <time>2022-08-25T09:53:31+02:00</time>
      </trkpt>
      <trkpt lat="44.09187" lon="0.67665">
        <ele>155</ele>
        <time>2022-08-25T09:53:43+02:00</time>
      </trkpt>
      <trkpt lat="44.09188" lon="0.67645">
        <ele>155</ele>
        <time>2022-08-25T09:53:54+02:00</time>
      </trkpt>
      <trkpt lat="44.09192" lon="0.67626">
        <ele>156</ele>
        <time>2022-08-25T09:54:05+02:00</time>
      </trkpt>
      <trkpt lat="44.09193" lon="0.67606">
        <ele>157</ele>
        <time>2022-08-25T09:54:14+02:00</time>
      </trkpt>
      <trkpt lat="44.09199" lon="0.67588">
        <ele>157</ele>
        <time>2022-08-25T09:54:26+02:00</time>
      </trkpt>
      <trkpt lat="44.09203" lon="0.67569">
        <ele>158</ele>
        <time>2022-08-25T09:54:38+02:00</time>
      </trkpt>
      <trkpt lat="44.09206" lon="0.67549">
        <ele>159</ele>
        <time>2022-08-25T09:54:49+02:00</time>
      </trkpt>
      <trkpt lat="44.09211" lon="0.67531">
        <ele>159</ele>
        <time>2022-08-25T09:54:59+02:00</time>
      </trkpt>
      <trkpt lat="44.09215" lon="0.67512">
        <ele>160</ele>
        <time>2022-08-25T09:55:10+02:00</time>
      </trkpt>
      <trkpt lat="44.09218" lon="0.67492">
        <ele>161</ele>
        <time>2022-08-25T09:55:23+02:00</time>
      </trkpt>
      <trkpt lat="44.09223" lon="0.67473">
        <ele>162</ele>
        <time>2022-08-25T09:55:35+02:00</time>
      </trkpt>
      <trkpt lat="44.09228" lon="0.67456">
        <ele>163</ele>
        <time>2022-08-25T09:55:48+02:00</time>
      </trkpt>
      <trkpt lat="44.09224" lon="0.67438">
        <ele>165</ele>
        <time>2022-08-25T09:56:14+02:00</time>
      </trkpt>
      <trkpt lat="44.09212" lon="0.67429">
        <ele>165</ele>
        <time>2022-08-25T09:56:25+02:00</time>
      </trkpt>
      <trkpt lat="44.09198" lon="0.67424">
        <ele>166</ele>
        <time>2022-08-25T09:56:38+02:00</time>
      </trkpt>
      <trkpt lat="44.09185" lon="0.67418">
        <ele>166</ele>
        <time>2022-08-25T09:56:51+02:00</time>
      </trkpt>
      <trkpt lat="44.09171" lon="0.67412">
        <ele>166</ele>
        <time>2022-08-25T09:57:02+02:00</time>
      </trkpt>
      <trkpt lat="44.09159" lon="0.67404">
        <ele>166</ele>
        <time>2022-08-25T09:57:14+02:00</time>
      </trkpt>
      <trkpt lat="44.09145" lon="0.67399">
        <ele>166</ele>
        <time>2022-08-25T09:57:26+02:00</time>
      </trkpt>
      <trkpt lat="44.09132" lon="0.67395">
        <ele>166</ele>
        <time>2022-08-25T09:57:39+02:00</time>
      </trkpt>
      <trkpt lat="44.09118" lon="0.67392">
        <ele>167</ele>
        <time>2022-08-25T09:58:04+02:00</time>
      </trkpt>
      <trkpt lat="44.09104" lon="0.67389">
        <ele>167</ele>
        <time>2022-08-25T09:58:17+02:00</time>
      </trkpt>
      <trkpt lat="44.09092" lon="0.67382">
        <ele>168</ele>
        <time>2022-08-25T09:58:29+02:00</time>
      </trkpt>
      <trkpt lat="44.09078" lon="0.67377">
        <ele>168</ele>
        <time>2022-08-25T09:58:41+02:00</time>
      </trkpt>
      <trkpt lat="44.09064" lon="0.67377">
        <ele>168</ele>
        <time>2022-08-25T09:58:52+02:00</time>
      </trkpt>
      <trkpt lat="44.09049" lon="0.6738">
        <ele>168</ele>
        <time>2022-08-25T09:59:03+02:00</time>
      </trkpt>
      <trkpt lat="44.09035" lon="0.6738">
        <ele>168</ele>
        <time>2022-08-25T09:59:14+02:00</time>
      </trkpt>
      <trkpt lat="44.09021" lon="0.67382">
        <ele>168</ele>
        <time>2022-08-25T09:59:25+02:00</time>
      </trkpt>
      <trkpt lat="44.09007" lon="0.67383">
        <ele>167</ele>
        <time>2022-08-25T09:59:38+02:00</time>
      </trkpt>
      <trkpt lat="44.08993" lon="0.67383">
        <ele>167</ele>
        <time>2022-08-25T09:59:48+02:00</time>
      </trkpt>
      <trkpt lat="44.08979" lon="0.67382">
        <ele>167</ele>
        <time>2022-08-25T09:59:59+02:00</time>
      </trkpt>
      <trkpt lat="44.08966" lon="0.67378">
        <ele>166</ele>
        <time>2022-08-25T10:00:10+02:00</time>
      </trkpt>
      <trkpt lat="44.08952" lon="0.67374">
        <ele>166</ele>
        <time>2022-08-25T10:00:20+02:00</time>
      </trkpt>
      <trkpt lat="44.08939" lon="0.67365">
        <ele>166</ele>
        <time>2022-08-25T10:00:31+02:00</time>
      </trkpt>
      <trkpt lat="44.08926" lon="0.6736">
        <ele>165</ele>
        <time>2022-08-25T10:00:41+02:00</time>
      </trkpt>
      <trkpt lat="44.08913" lon="0.67352">
        <ele>165</ele>
        <time>2022-08-25T10:00:52+02:00</time>
      </trkpt>
      <trkpt lat="44.089" lon="0.67343">
        <ele>166</ele>
        <time>2022-08-25T10:01:04+02:00</time>
      </trkpt>
      <trkpt lat="44.08887" lon="0.67336">
        <ele>167</ele>
        <time>2022-08-25T10:01:15+02:00</time>
      </trkpt>
      <trkpt lat="44.08875" lon="0.67325">
        <ele>168</ele>
        <time>2022-08-25T10:01:28+02:00</time>
      </trkpt>
      <trkpt lat="44.08865" lon="0.67312">
        <ele>170</ele>
        <time>2022-08-25T10:01:38+02:00</time>
      </trkpt>
      <trkpt lat="44.08856" lon="0.67298">
        <ele>171</ele>
        <time>2022-08-25T10:01:52+02:00</time>
      </trkpt>
      <trkpt lat="44.08844" lon="0.67286">
        <ele>173</ele>
        <time>2022-08-25T10:02:04+02:00</time>
      </trkpt>
      <trkpt lat="44.08838" lon="0.67268">
        <ele>174</ele>
        <time>2022-08-25T10:02:13+02:00</time>
      </trkpt>
      <trkpt lat="44.08827" lon="0.67257">
        <ele>176</ele>
        <time>2022-08-25T10:02:36+02:00</time>
      </trkpt>
      <trkpt lat="44.08815" lon="0.67244">
        <ele>176</ele>
        <time>2022-08-25T10:02:49+02:00</time>
      </trkpt>
      <trkpt lat="44.08803" lon="0.67233">
        <ele>177</ele>
        <time>2022-08-25T10:03:00+02:00</time>
      </trkpt>
      <trkpt lat="44.0879" lon="0.67224">
        <ele>177</ele>
        <time>2022-08-25T10:03:14+02:00</time>
      </trkpt>
      <trkpt lat="44.08778" lon="0.67218">
        <ele>178</ele>
        <time>2022-08-25T10:03:28+02:00</time>
      </trkpt>
      <trkpt lat="44.08764" lon="0.67213">
        <ele>178</ele>
        <time>2022-08-25T10:03:40+02:00</time>
      </trkpt>
      <trkpt lat="44.0875" lon="0.67211">
        <ele>179</ele>
        <time>2022-08-25T10:03:52+02:00</time>
      </trkpt>
      <trkpt lat="44.08736" lon="0.67208">
        <ele>178</ele>
        <time>2022-08-25T10:04:03+02:00</time>
      </trkpt>
      <trkpt lat="44.08723" lon="0.67208">
        <ele>177</ele>
        <time>2022-08-25T10:04:13+02:00</time>
      </trkpt>
      <trkpt lat="44.08708" lon="0.6721">
        <ele>176</ele>
        <time>2022-08-25T10:04:26+02:00</time>
      </trkpt>
      <trkpt lat="44.08695" lon="0.6722">
        <ele>175</ele>
        <time>2022-08-25T10:04:39+02:00</time>
      </trkpt>
      <trkpt lat="44.08682" lon="0.67229">
        <ele>174</ele>
        <time>2022-08-25T10:04:52+02:00</time>
      </trkpt>
      <trkpt lat="44.08669" lon="0.67238">
        <ele>174</ele>
        <time>2022-08-25T10:05:02+02:00</time>
      </trkpt>
      <trkpt lat="44.08657" lon="0.67248">
        <ele>172</ele>
        <time>2022-08-25T10:05:11+02:00</time>
      </trkpt>
      <trkpt lat="44.08647" lon="0.67263">
        <ele>169</ele>
        <time>2022-08-25T10:05:23+02:00</time>
      </trkpt>
      <trkpt lat="44.08633" lon="0.6727">
        <ele>166</ele>
        <time>2022-08-25T10:05:50+02:00</time>
      </trkpt>
      <trkpt lat="44.08632" lon="0.67251">
        <ele>166</ele>
        <time>2022-08-25T10:07:39+02:00</time>
      </trkpt>
      <trkpt lat="44.08641" lon="0.67236">
        <ele>168</ele>
        <time>2022-08-25T10:07:52+02:00</time>
      </trkpt>
      <trkpt lat="44.0865" lon="0.6722">
        <ele>170</ele>
        <time>2022-08-25T10:08:05+02:00</time>
      </trkpt>
      <trkpt lat="44.08657" lon="0.67203">
        <ele>171</ele>
        <time>2022-08-25T10:08:19+02:00</time>
      </trkpt>
      <trkpt lat="44.08655" lon="0.67183">
        <ele>170</ele>
        <time>2022-08-25T10:08:29+02:00</time>
      </trkpt>
      <trkpt lat="44.08658" lon="0.67163">
        <ele>170</ele>
        <time>2022-08-25T10:08:39+02:00</time>
      </trkpt>
      <trkpt lat="44.08661" lon="0.67143">
        <ele>168</ele>
        <time>2022-08-25T10:08:49+02:00</time>
      </trkpt>
      <trkpt lat="44.08667" lon="0.67127">
        <ele>167</ele>
        <time>2022-08-25T10:09:09+02:00</time>
      </trkpt>
      <trkpt lat="44.08656" lon="0.67116">
        <ele>164</ele>
        <time>2022-08-25T10:09:25+02:00</time>
      </trkpt>
      <trkpt lat="44.08643" lon="0.67106">
        <ele>160</ele>
        <time>2022-08-25T10:09:40+02:00</time>
      </trkpt>
      <trkpt lat="44.08628" lon="0.67106">
        <ele>157</ele>
        <time>2022-08-25T10:10:57+02:00</time>
      </trkpt>
      <trkpt lat="44.08615" lon="0.67099">
        <ele>154</ele>
        <time>2022-08-25T10:11:12+02:00</time>
      </trkpt>
      <trkpt lat="44.08601" lon="0.67095">
        <ele>151</ele>
        <time>2022-08-25T10:11:26+02:00</time>
      </trkpt>
      <trkpt lat="44.08588" lon="0.6709">
        <ele>148</ele>
        <time>2022-08-25T10:11:42+02:00</time>
      </trkpt>
      <trkpt lat="44.08575" lon="0.67084">
        <ele>146</ele>
        <time>2022-08-25T10:11:55+02:00</time>
      </trkpt>
      <trkpt lat="44.08562" lon="0.67078">
        <ele>144</ele>
        <time>2022-08-25T10:12:08+02:00</time>
      </trkpt>
      <trkpt lat="44.08549" lon="0.67069">
        <ele>141</ele>
        <time>2022-08-25T10:12:20+02:00</time>
      </trkpt>
      <trkpt lat="44.08535" lon="0.67067">
        <ele>139</ele>
        <time>2022-08-25T10:13:12+02:00</time>
      </trkpt>
      <trkpt lat="44.08521" lon="0.6706">
        <ele>137</ele>
        <time>2022-08-25T10:13:23+02:00</time>
      </trkpt>
      <trkpt lat="44.08507" lon="0.67054">
        <ele>135</ele>
        <time>2022-08-25T10:13:34+02:00</time>
      </trkpt>
      <trkpt lat="44.08494" lon="0.67047">
        <ele>133</ele>
        <time>2022-08-25T10:13:45+02:00</time>
      </trkpt>
      <trkpt lat="44.0848" lon="0.67041">
        <ele>131</ele>
        <time>2022-08-25T10:13:56+02:00</time>
      </trkpt>
      <trkpt lat="44.08467" lon="0.67035">
        <ele>129</ele>
        <time>2022-08-25T10:14:06+02:00</time>
      </trkpt>
      <trkpt lat="44.08454" lon="0.6703">
        <ele>127</ele>
        <time>2022-08-25T10:14:16+02:00</time>
      </trkpt>
      <trkpt lat="44.08441" lon="0.67024">
        <ele>125</ele>
        <time>2022-08-25T10:14:26+02:00</time>
      </trkpt>
      <trkpt lat="44.08427" lon="0.67023">
        <ele>123</ele>
        <time>2022-08-25T10:14:36+02:00</time>
      </trkpt>
      <trkpt lat="44.08413" lon="0.67018">
        <ele>121</ele>
        <time>2022-08-25T10:14:49+02:00</time>
      </trkpt>
      <trkpt lat="44.084" lon="0.67009">
        <ele>119</ele>
        <time>2022-08-25T10:14:57+02:00</time>
      </trkpt>
      <trkpt lat="44.08387" lon="0.67003">
        <ele>117</ele>
        <time>2022-08-25T10:15:10+02:00</time>
      </trkpt>
      <trkpt lat="44.08373" lon="0.66997">
        <ele>115</ele>
        <time>2022-08-25T10:15:21+02:00</time>
      </trkpt>
      <trkpt lat="44.0836" lon="0.66988">
        <ele>113</ele>
        <time>2022-08-25T10:15:33+02:00</time>
      </trkpt>
      <trkpt lat="44.08347" lon="0.66984">
        <ele>111</ele>
        <time>2022-08-25T10:15:44+02:00</time>
      </trkpt>
      <trkpt lat="44.08332" lon="0.66979">
        <ele>109</ele>
        <time>2022-08-25T10:15:54+02:00</time>
      </trkpt>
      <trkpt lat="44.08318" lon="0.66977">
        <ele>108</ele>
        <time>2022-08-25T10:16:04+02:00</time>
      </trkpt>
      <trkpt lat="44.08303" lon="0.66978">
        <ele>106</ele>
        <time>2022-08-25T10:16:13+02:00</time>
      </trkpt>
      <trkpt lat="44.08289" lon="0.66976">
        <ele>105</ele>
        <time>2022-08-25T10:16:23+02:00</time>
      </trkpt>
      <trkpt lat="44.08275" lon="0.66977">
        <ele>104</ele>
        <time>2022-08-25T10:16:36+02:00</time>
      </trkpt>
      <trkpt lat="44.08261" lon="0.66982">
        <ele>102</ele>
        <time>2022-08-25T10:16:47+02:00</time>
      </trkpt>
      <trkpt lat="44.08248" lon="0.66987">
        <ele>101</ele>
        <time>2022-08-25T10:16:57+02:00</time>
      </trkpt>
      <trkpt lat="44.08236" lon="0.66994">
        <ele>101</ele>
        <time>2022-08-25T10:17:06+02:00</time>
      </trkpt>
      <trkpt lat="44.08222" lon="0.67">
        <ele>101</ele>
        <time>2022-08-25T10:17:16+02:00</time>
      </trkpt>
      <trkpt lat="44.08208" lon="0.67002">
        <ele>101</ele>
        <time>2022-08-25T10:17:30+02:00</time>
      </trkpt>
      <trkpt lat="44.08192" lon="0.67004">
        <ele>101</ele>
        <time>2022-08-25T10:17:42+02:00</time>
      </trkpt>
      <trkpt lat="44.08177" lon="0.67001">
        <ele>100</ele>
        <time>2022-08-25T10:17:49+02:00</time>
      </trkpt>
      <trkpt lat="44.08164" lon="0.67004">
        <ele>100</ele>
        <time>2022-08-25T10:18:01+02:00</time>
      </trkpt>
      <trkpt lat="44.08153" lon="0.66991">
        <ele>100</ele>
        <time>2022-08-25T10:18:47+02:00</time>
      </trkpt>
      <trkpt lat="44.0815" lon="0.66972">
        <ele>99</ele>
        <time>2022-08-25T10:18:59+02:00</time>
      </trkpt>
      <trkpt lat="44.08143" lon="0.66956">
        <ele>99</ele>
        <time>2022-08-25T10:19:12+02:00</time>
      </trkpt>
      <trkpt lat="44.08139" lon="0.66937">
        <ele>98</ele>
        <time>2022-08-25T10:19:23+02:00</time>
      </trkpt>
      <trkpt lat="44.08134" lon="0.66919">
        <ele>97</ele>
        <time>2022-08-25T10:19:32+02:00</time>
      </trkpt>
      <trkpt lat="44.08116" lon="0.66894">
        <ele>95</ele>
        <time>2022-08-25T10:22:01+02:00</time>
      </trkpt>
      <trkpt lat="44.08107" lon="0.66876">
        <ele>94</ele>
        <time>2022-08-25T10:22:05+02:00</time>
      </trkpt>
      <trkpt lat="44.081" lon="0.66856">
        <ele>92</ele>
        <time>2022-08-25T10:22:10+02:00</time>
      </trkpt>
      <trkpt lat="44.08091" lon="0.66841">
        <ele>91</ele>
        <time>2022-08-25T10:22:14+02:00</time>
      </trkpt>
      <trkpt lat="44.08085" lon="0.66823">
        <ele>88</ele>
        <time>2022-08-25T10:22:30+02:00</time>
      </trkpt>
      <trkpt lat="44.08099" lon="0.66823">
        <ele>87</ele>
        <time>2022-08-25T10:22:34+02:00</time>
      </trkpt>
      <trkpt lat="44.08114" lon="0.66834">
        <ele>89</ele>
        <time>2022-08-25T10:22:38+02:00</time>
      </trkpt>
      <trkpt lat="44.08128" lon="0.66828">
        <ele>87</ele>
        <time>2022-08-25T10:22:44+02:00</time>
      </trkpt>
      <trkpt lat="44.08142" lon="0.66822">
        <ele>86</ele>
        <time>2022-08-25T10:22:49+02:00</time>
      </trkpt>
      <trkpt lat="44.08157" lon="0.66815">
        <ele>84</ele>
        <time>2022-08-25T10:22:52+02:00</time>
      </trkpt>
      <trkpt lat="44.0817" lon="0.66809">
        <ele>83</ele>
        <time>2022-08-25T10:22:56+02:00</time>
      </trkpt>
      <trkpt lat="44.08159" lon="0.66824">
        <ele>86</ele>
        <time>2022-08-25T10:23:10+02:00</time>
      </trkpt>
      <trkpt lat="44.0816" lon="0.66803">
        <ele>82</ele>
        <time>2022-08-25T10:23:23+02:00</time>
      </trkpt>
      <trkpt lat="44.08157" lon="0.66784">
        <ele>79</ele>
        <time>2022-08-25T10:23:28+02:00</time>
      </trkpt>
      <trkpt lat="44.08166" lon="0.66766">
        <ele>76</ele>
        <time>2022-08-25T10:23:32+02:00</time>
      </trkpt>
      <trkpt lat="44.0818" lon="0.66767">
        <ele>79</ele>
        <time>2022-08-25T10:23:36+02:00</time>
      </trkpt>
      <trkpt lat="44.08154" lon="0.66726">
        <ele>71</ele>
        <time>2022-08-25T10:23:49+02:00</time>
      </trkpt>
      <trkpt lat="44.08169" lon="0.66732">
        <ele>73</ele>
        <time>2022-08-25T10:23:56+02:00</time>
      </trkpt>
      <trkpt lat="44.08152" lon="0.66721">
        <ele>71</ele>
        <time>2022-08-25T10:24:04+02:00</time>
      </trkpt>
      <trkpt lat="44.08138" lon="0.6672">
        <ele>70</ele>
        <time>2022-08-25T10:24:12+02:00</time>
      </trkpt>
      <trkpt lat="44.08156" lon="0.66725">
        <ele>71</ele>
        <time>2022-08-25T10:24:15+02:00</time>
      </trkpt>
      <trkpt lat="44.08143" lon="0.66731">
        <ele>71</ele>
        <time>2022-08-25T10:25:37+02:00</time>
      </trkpt>
      <trkpt lat="44.08129" lon="0.66729">
        <ele>71</ele>
        <time>2022-08-25T10:25:58+02:00</time>
      </trkpt>
      <trkpt lat="44.08115" lon="0.6673">
        <ele>70</ele>
        <time>2022-08-25T10:26:09+02:00</time>
      </trkpt>
      <trkpt lat="44.08101" lon="0.6673">
        <ele>70</ele>
        <time>2022-08-25T10:26:20+02:00</time>
      </trkpt>
      <trkpt lat="44.08087" lon="0.6673">
        <ele>69</ele>
        <time>2022-08-25T10:26:33+02:00</time>
      </trkpt>
      <trkpt lat="44.08073" lon="0.6673">
        <ele>69</ele>
        <time>2022-08-25T10:26:44+02:00</time>
      </trkpt>
      <trkpt lat="44.08059" lon="0.66726">
        <ele>67</ele>
        <time>2022-08-25T10:26:56+02:00</time>
      </trkpt>
      <trkpt lat="44.08045" lon="0.66727">
        <ele>67</ele>
        <time>2022-08-25T10:27:08+02:00</time>
      </trkpt>
      <trkpt lat="44.08031" lon="0.66733">
        <ele>68</ele>
        <time>2022-08-25T10:27:22+02:00</time>
      </trkpt>
      <trkpt lat="44.08017" lon="0.66734">
        <ele>67</ele>
        <time>2022-08-25T10:27:55+02:00</time>
      </trkpt>
      <trkpt lat="44.08005" lon="0.66741">
        <ele>68</ele>
        <time>2022-08-25T10:28:08+02:00</time>
      </trkpt>
      <trkpt lat="44.07992" lon="0.66748">
        <ele>68</ele>
        <time>2022-08-25T10:28:21+02:00</time>
      </trkpt>
      <trkpt lat="44.07979" lon="0.66756">
        <ele>68</ele>
        <time>2022-08-25T10:28:31+02:00</time>
      </trkpt>
      <trkpt lat="44.07966" lon="0.66763">
        <ele>68</ele>
        <time>2022-08-25T10:28:41+02:00</time>
      </trkpt>
      <trkpt lat="44.07955" lon="0.66776">
        <ele>70</ele>
        <time>2022-08-25T10:28:52+02:00</time>
      </trkpt>
      <trkpt lat="44.07943" lon="0.66788">
        <ele>71</ele>
        <time>2022-08-25T10:29:05+02:00</time>
      </trkpt>
      <trkpt lat="44.07931" lon="0.668">
        <ele>71</ele>
        <time>2022-08-25T10:29:16+02:00</time>
      </trkpt>
      <trkpt lat="44.07917" lon="0.66805">
        <ele>71</ele>
        <time>2022-08-25T10:29:27+02:00</time>
      </trkpt>
      <trkpt lat="44.07903" lon="0.66811">
        <ele>71</ele>
        <time>2022-08-25T10:29:38+02:00</time>
      </trkpt>
      <trkpt lat="44.07892" lon="0.66823">
        <ele>72</ele>
        <time>2022-08-25T10:29:49+02:00</time>
      </trkpt>
      <trkpt lat="44.07879" lon="0.66831">
        <ele>72</ele>
        <time>2022-08-25T10:30:01+02:00</time>
      </trkpt>
      <trkpt lat="44.07865" lon="0.66836">
        <ele>72</ele>
        <time>2022-08-25T10:30:14+02:00</time>
      </trkpt>
      <trkpt lat="44.07851" lon="0.66841">
        <ele>72</ele>
        <time>2022-08-25T10:30:44+02:00</time>
      </trkpt>
      <trkpt lat="44.07837" lon="0.66846">
        <ele>72</ele>
        <time>2022-08-25T10:31:04+02:00</time>
      </trkpt>
      <trkpt lat="44.07824" lon="0.66853">
        <ele>72</ele>
        <time>2022-08-25T10:31:16+02:00</time>
      </trkpt>
      <trkpt lat="44.0781" lon="0.66856">
        <ele>71</ele>
        <time>2022-08-25T10:31:26+02:00</time>
      </trkpt>
      <trkpt lat="44.07796" lon="0.66852">
        <ele>69</ele>
        <time>2022-08-25T10:31:36+02:00</time>
      </trkpt>
      <trkpt lat="44.07783" lon="0.66861">
        <ele>70</ele>
        <time>2022-08-25T10:31:47+02:00</time>
      </trkpt>
      <trkpt lat="44.0777" lon="0.66868">
        <ele>70</ele>
        <time>2022-08-25T10:31:59+02:00</time>
      </trkpt>
      <trkpt lat="44.07755" lon="0.66874">
        <ele>69</ele>
        <time>2022-08-25T10:32:09+02:00</time>
      </trkpt>
      <trkpt lat="44.07742" lon="0.6688">
        <ele>69</ele>
        <time>2022-08-25T10:32:19+02:00</time>
      </trkpt>
      <trkpt lat="44.07729" lon="0.66887">
        <ele>69</ele>
        <time>2022-08-25T10:32:29+02:00</time>
      </trkpt>
      <trkpt lat="44.07716" lon="0.66897">
        <ele>69</ele>
        <time>2022-08-25T10:32:41+02:00</time>
      </trkpt>
      <trkpt lat="44.07702" lon="0.66898">
        <ele>68</ele>
        <time>2022-08-25T10:32:49+02:00</time>
      </trkpt>
      <trkpt lat="44.07692" lon="0.66912">
        <ele>69</ele>
        <time>2022-08-25T10:33:02+02:00</time>
      </trkpt>
      <trkpt lat="44.07684" lon="0.66928">
        <ele>70</ele>
        <time>2022-08-25T10:33:16+02:00</time>
      </trkpt>
      <trkpt lat="44.07679" lon="0.66947">
        <ele>73</ele>
        <time>2022-08-25T10:33:27+02:00</time>
      </trkpt>
      <trkpt lat="44.07674" lon="0.66965">
        <ele>75</ele>
        <time>2022-08-25T10:33:40+02:00</time>
      </trkpt>
      <trkpt lat="44.0767" lon="0.66984">
        <ele>77</ele>
        <time>2022-08-25T10:33:51+02:00</time>
      </trkpt>
      <trkpt lat="44.07668" lon="0.67003">
        <ele>79</ele>
        <time>2022-08-25T10:34:04+02:00</time>
      </trkpt>
      <trkpt lat="44.07664" lon="0.67022">
        <ele>80</ele>
        <time>2022-08-25T10:34:21+02:00</time>
      </trkpt>
      <trkpt lat="44.07668" lon="0.67041">
        <ele>82</ele>
        <time>2022-08-25T10:34:38+02:00</time>
      </trkpt>
      <trkpt lat="44.07669" lon="0.6706">
        <ele>83</ele>
        <time>2022-08-25T10:34:55+02:00</time>
      </trkpt>
      <trkpt lat="44.07665" lon="0.67078">
        <ele>83</ele>
        <time>2022-08-25T10:35:14+02:00</time>
      </trkpt>
      <trkpt lat="44.07666" lon="0.67098">
        <ele>85</ele>
        <time>2022-08-25T10:35:28+02:00</time>
      </trkpt>
      <trkpt lat="44.0767" lon="0.67116">
        <ele>86</ele>
        <time>2022-08-25T10:35:43+02:00</time>
      </trkpt>
      <trkpt lat="44.07678" lon="0.67132">
        <ele>88</ele>
        <time>2022-08-25T10:35:57+02:00</time>
      </trkpt>
      <trkpt lat="44.07684" lon="0.6715">
        <ele>90</ele>
        <time>2022-08-25T10:36:10+02:00</time>
      </trkpt>
      <trkpt lat="44.07688" lon="0.67168">
        <ele>92</ele>
        <time>2022-08-25T10:36:22+02:00</time>
      </trkpt>
      <trkpt lat="44.0769" lon="0.67187">
        <ele>94</ele>
        <time>2022-08-25T10:36:37+02:00</time>
      </trkpt>
      <trkpt lat="44.07691" lon="0.67206">
        <ele>95</ele>
        <time>2022-08-25T10:36:49+02:00</time>
      </trkpt>
      <trkpt lat="44.07698" lon="0.67223">
        <ele>98</ele>
        <time>2022-08-25T10:37:09+02:00</time>
      </trkpt>
      <trkpt lat="44.07707" lon="0.67238">
        <ele>100</ele>
        <time>2022-08-25T10:37:21+02:00</time>
      </trkpt>
      <trkpt lat="44.07718" lon="0.6725">
        <ele>103</ele>
        <time>2022-08-25T10:37:44+02:00</time>
      </trkpt>
      <trkpt lat="44.0773" lon="0.67259">
        <ele>106</ele>
        <time>2022-08-25T10:38:08+02:00</time>
      </trkpt>
      <trkpt lat="44.0774" lon="0.67273">
        <ele>108</ele>
        <time>2022-08-25T10:38:22+02:00</time>
      </trkpt>
      <trkpt lat="44.07749" lon="0.6729">
        <ele>111</ele>
        <time>2022-08-25T10:39:12+02:00</time>
      </trkpt>
      <trkpt lat="44.07755" lon="0.67307">
        <ele>113</ele>
        <time>2022-08-25T10:39:22+02:00</time>
      </trkpt>
      <trkpt lat="44.07764" lon="0.67322">
        <ele>115</ele>
        <time>2022-08-25T10:39:31+02:00</time>
      </trkpt>
      <trkpt lat="44.07772" lon="0.67338">
        <ele>116</ele>
        <time>2022-08-25T10:39:41+02:00</time>
      </trkpt>
      <trkpt lat="44.07782" lon="0.67352">
        <ele>118</ele>
        <time>2022-08-25T10:39:52+02:00</time>
      </trkpt>
      <trkpt lat="44.07793" lon="0.67364">
        <ele>120</ele>
        <time>2022-08-25T10:40:02+02:00</time>
      </trkpt>
      <trkpt lat="44.07804" lon="0.67374">
        <ele>121</ele>
        <time>2022-08-25T10:40:13+02:00</time>
      </trkpt>
      <trkpt lat="44.07811" lon="0.67392">
        <ele>123</ele>
        <time>2022-08-25T10:43:29+02:00</time>
      </trkpt>
      <trkpt lat="44.07802" lon="0.67406">
        <ele>123</ele>
        <time>2022-08-25T10:43:42+02:00</time>
      </trkpt>
      <trkpt lat="44.07793" lon="0.67421">
        <ele>123</ele>
        <time>2022-08-25T10:43:54+02:00</time>
      </trkpt>
      <trkpt lat="44.07785" lon="0.67438">
        <ele>123</ele>
        <time>2022-08-25T10:44:06+02:00</time>
      </trkpt>
      <trkpt lat="44.07779" lon="0.67455">
        <ele>124</ele>
        <time>2022-08-25T10:44:18+02:00</time>
      </trkpt>
      <trkpt lat="44.07774" lon="0.67473">
        <ele>125</ele>
        <time>2022-08-25T10:44:30+02:00</time>
      </trkpt>
      <trkpt lat="44.07767" lon="0.67489">
        <ele>126</ele>
        <time>2022-08-25T10:44:40+02:00</time>
      </trkpt>
      <trkpt lat="44.07765" lon="0.67509">
        <ele>127</ele>
        <time>2022-08-25T10:44:51+02:00</time>
      </trkpt>
      <trkpt lat="44.07766" lon="0.67528">
        <ele>128</ele>
        <time>2022-08-25T10:45:02+02:00</time>
      </trkpt>
      <trkpt lat="44.07766" lon="0.67548">
        <ele>129</ele>
        <time>2022-08-25T10:45:12+02:00</time>
      </trkpt>
      <trkpt lat="44.07767" lon="0.67568">
        <ele>130</ele>
        <time>2022-08-25T10:45:22+02:00</time>
      </trkpt>
      <trkpt lat="44.07771" lon="0.67588">
        <ele>131</ele>
        <time>2022-08-25T10:45:31+02:00</time>
      </trkpt>
      <trkpt lat="44.07774" lon="0.67607">
        <ele>132</ele>
        <time>2022-08-25T10:45:40+02:00</time>
      </trkpt>
      <trkpt lat="44.07775" lon="0.67627">
        <ele>133</ele>
        <time>2022-08-25T10:45:51+02:00</time>
      </trkpt>
      <trkpt lat="44.07777" lon="0.67647">
        <ele>134</ele>
        <time>2022-08-25T10:46:02+02:00</time>
      </trkpt>
      <trkpt lat="44.07776" lon="0.67666">
        <ele>134</ele>
        <time>2022-08-25T10:46:13+02:00</time>
      </trkpt>
      <trkpt lat="44.07772" lon="0.67684">
        <ele>135</ele>
        <time>2022-08-25T10:46:33+02:00</time>
      </trkpt>
      <trkpt lat="44.07764" lon="0.67699">
        <ele>136</ele>
        <time>2022-08-25T10:46:45+02:00</time>
      </trkpt>
      <trkpt lat="44.07755" lon="0.67714">
        <ele>138</ele>
        <time>2022-08-25T10:46:59+02:00</time>
      </trkpt>
      <trkpt lat="44.07748" lon="0.67731">
        <ele>139</ele>
        <time>2022-08-25T10:47:11+02:00</time>
      </trkpt>
      <trkpt lat="44.07738" lon="0.67745">
        <ele>140</ele>
        <time>2022-08-25T10:47:22+02:00</time>
      </trkpt>
      <trkpt lat="44.07731" lon="0.67762">
        <ele>141</ele>
        <time>2022-08-25T10:47:34+02:00</time>
      </trkpt>
      <trkpt lat="44.07734" lon="0.67782">
        <ele>143</ele>
        <time>2022-08-25T10:47:45+02:00</time>
      </trkpt>
      <trkpt lat="44.0774" lon="0.678">
        <ele>145</ele>
        <time>2022-08-25T10:47:56+02:00</time>
      </trkpt>
      <trkpt lat="44.07747" lon="0.67817">
        <ele>148</ele>
        <time>2022-08-25T10:48:07+02:00</time>
      </trkpt>
      <trkpt lat="44.07754" lon="0.67833">
        <ele>150</ele>
        <time>2022-08-25T10:48:20+02:00</time>
      </trkpt>
      <trkpt lat="44.0776" lon="0.67852">
        <ele>150</ele>
        <time>2022-08-25T10:48:55+02:00</time>
      </trkpt>
      <trkpt lat="44.07768" lon="0.67887">
        <ele>152</ele>
        <time>2022-08-25T10:49:18+02:00</time>
      </trkpt>
      <trkpt lat="44.07776" lon="0.67904">
        <ele>152</ele>
        <time>2022-08-25T10:49:28+02:00</time>
      </trkpt>
      <trkpt lat="44.0778" lon="0.67922">
        <ele>153</ele>
        <time>2022-08-25T10:49:38+02:00</time>
      </trkpt>
      <trkpt lat="44.07788" lon="0.67938">
        <ele>153</ele>
        <time>2022-08-25T10:51:01+02:00</time>
      </trkpt>
      <trkpt lat="44.07781" lon="0.67953">
        <ele>154</ele>
        <time>2022-08-25T10:51:27+02:00</time>
      </trkpt>
      <trkpt lat="44.07776" lon="0.67971">
        <ele>155</ele>
        <time>2022-08-25T10:51:43+02:00</time>
      </trkpt>
      <trkpt lat="44.0777" lon="0.67988">
        <ele>156</ele>
        <time>2022-08-25T10:51:55+02:00</time>
      </trkpt>
      <trkpt lat="44.07759" lon="0.67999">
        <ele>157</ele>
        <time>2022-08-25T10:52:10+02:00</time>
      </trkpt>
      <trkpt lat="44.07751" lon="0.68015">
        <ele>158</ele>
        <time>2022-08-25T10:52:21+02:00</time>
      </trkpt>
      <trkpt lat="44.07745" lon="0.68033">
        <ele>158</ele>
        <time>2022-08-25T10:52:35+02:00</time>
      </trkpt>
      <trkpt lat="44.07736" lon="0.68049">
        <ele>158</ele>
        <time>2022-08-25T10:52:47+02:00</time>
      </trkpt>
      <trkpt lat="44.07726" lon="0.68062">
        <ele>157</ele>
        <time>2022-08-25T10:53:00+02:00</time>
      </trkpt>
      <trkpt lat="44.07718" lon="0.68078">
        <ele>156</ele>
        <time>2022-08-25T10:53:08+02:00</time>
      </trkpt>
      <trkpt lat="44.07706" lon="0.68088">
        <ele>155</ele>
        <time>2022-08-25T10:53:25+02:00</time>
      </trkpt>
      <trkpt lat="44.07697" lon="0.68104">
        <ele>154</ele>
        <time>2022-08-25T10:53:39+02:00</time>
      </trkpt>
      <trkpt lat="44.07688" lon="0.68119">
        <ele>153</ele>
        <time>2022-08-25T10:53:49+02:00</time>
      </trkpt>
      <trkpt lat="44.07679" lon="0.68134">
        <ele>153</ele>
        <time>2022-08-25T10:54:02+02:00</time>
      </trkpt>
      <trkpt lat="44.0767" lon="0.68149">
        <ele>153</ele>
        <time>2022-08-25T10:54:12+02:00</time>
      </trkpt>
      <trkpt lat="44.07662" lon="0.68166">
        <ele>152</ele>
        <time>2022-08-25T10:54:24+02:00</time>
      </trkpt>
      <trkpt lat="44.07652" lon="0.68182">
        <ele>151</ele>
        <time>2022-08-25T10:54:37+02:00</time>
      </trkpt>
      <trkpt lat="44.07643" lon="0.68198">
        <ele>150</ele>
        <time>2022-08-25T10:54:48+02:00</time>
      </trkpt>
      <trkpt lat="44.07635" lon="0.68214">
        <ele>150</ele>
        <time>2022-08-25T10:54:58+02:00</time>
      </trkpt>
      <trkpt lat="44.07625" lon="0.68228">
        <ele>149</ele>
        <time>2022-08-25T10:55:12+02:00</time>
      </trkpt>
      <trkpt lat="44.07618" lon="0.68244">
        <ele>149</ele>
        <time>2022-08-25T10:55:22+02:00</time>
      </trkpt>
      <trkpt lat="44.07607" lon="0.68256">
        <ele>148</ele>
        <time>2022-08-25T10:55:32+02:00</time>
      </trkpt>
      <trkpt lat="44.07598" lon="0.68272">
        <ele>148</ele>
        <time>2022-08-25T10:55:43+02:00</time>
      </trkpt>
      <trkpt lat="44.0759" lon="0.68287">
        <ele>148</ele>
        <time>2022-08-25T10:55:51+02:00</time>
      </trkpt>
      <trkpt lat="44.07583" lon="0.68305">
        <ele>148</ele>
        <time>2022-08-25T10:56:01+02:00</time>
      </trkpt>
      <trkpt lat="44.07575" lon="0.6832">
        <ele>147</ele>
        <time>2022-08-25T10:56:20+02:00</time>
      </trkpt>
      <trkpt lat="44.07571" lon="0.68339">
        <ele>146</ele>
        <time>2022-08-25T10:56:31+02:00</time>
      </trkpt>
      <trkpt lat="44.0758" lon="0.68354">
        <ele>146</ele>
        <time>2022-08-25T10:57:00+02:00</time>
      </trkpt>
      <trkpt lat="44.07591" lon="0.68366">
        <ele>146</ele>
        <time>2022-08-25T10:57:13+02:00</time>
      </trkpt>
      <trkpt lat="44.07604" lon="0.68375">
        <ele>145</ele>
        <time>2022-08-25T10:57:22+02:00</time>
      </trkpt>
      <trkpt lat="44.07615" lon="0.68384">
        <ele>145</ele>
        <time>2022-08-25T10:57:40+02:00</time>
      </trkpt>
      <trkpt lat="44.07621" lon="0.68401">
        <ele>144</ele>
        <time>2022-08-25T10:57:59+02:00</time>
      </trkpt>
      <trkpt lat="44.07632" lon="0.68414">
        <ele>143</ele>
        <time>2022-08-25T10:58:10+02:00</time>
      </trkpt>
      <trkpt lat="44.07643" lon="0.68426">
        <ele>142</ele>
        <time>2022-08-25T10:58:20+02:00</time>
      </trkpt>
      <trkpt lat="44.07651" lon="0.68443">
        <ele>141</ele>
        <time>2022-08-25T10:58:32+02:00</time>
      </trkpt>
      <trkpt lat="44.07658" lon="0.68459">
        <ele>140</ele>
        <time>2022-08-25T10:58:44+02:00</time>
      </trkpt>
      <trkpt lat="44.0766" lon="0.68479">
        <ele>140</ele>
        <time>2022-08-25T10:58:58+02:00</time>
      </trkpt>
      <trkpt lat="44.07667" lon="0.68496">
        <ele>139</ele>
        <time>2022-08-25T10:59:12+02:00</time>
      </trkpt>
      <trkpt lat="44.07678" lon="0.68509">
        <ele>138</ele>
        <time>2022-08-25T10:59:25+02:00</time>
      </trkpt>
      <trkpt lat="44.07689" lon="0.68522">
        <ele>137</ele>
        <time>2022-08-25T10:59:30+02:00</time>
      </trkpt>
      <trkpt lat="44.07699" lon="0.68536">
        <ele>136</ele>
        <time>2022-08-25T10:59:38+02:00</time>
      </trkpt>
      <trkpt lat="44.07708" lon="0.68551">
        <ele>135</ele>
        <time>2022-08-25T10:59:50+02:00</time>
      </trkpt>
      <trkpt lat="44.07716" lon="0.68567">
        <ele>134</ele>
        <time>2022-08-25T11:00:01+02:00</time>
      </trkpt>
      <trkpt lat="44.0772" lon="0.68586">
        <ele>132</ele>
        <time>2022-08-25T11:00:15+02:00</time>
      </trkpt>
      <trkpt lat="44.07728" lon="0.68604">
        <ele>131</ele>
        <time>2022-08-25T11:00:27+02:00</time>
      </trkpt>
      <trkpt lat="44.07736" lon="0.6862">
        <ele>130</ele>
        <time>2022-08-25T11:00:39+02:00</time>
      </trkpt>
      <trkpt lat="44.07746" lon="0.68633">
        <ele>129</ele>
        <time>2022-08-25T11:00:47+02:00</time>
      </trkpt>
      <trkpt lat="44.07755" lon="0.68649">
        <ele>128</ele>
        <time>2022-08-25T11:00:58+02:00</time>
      </trkpt>
      <trkpt lat="44.07764" lon="0.68662">
        <ele>127</ele>
        <time>2022-08-25T11:01:05+02:00</time>
      </trkpt>
      <trkpt lat="44.07773" lon="0.68678">
        <ele>126</ele>
        <time>2022-08-25T11:01:19+02:00</time>
      </trkpt>
      <trkpt lat="44.07778" lon="0.68696">
        <ele>125</ele>
        <time>2022-08-25T11:01:29+02:00</time>
      </trkpt>
      <trkpt lat="44.07785" lon="0.68712">
        <ele>124</ele>
        <time>2022-08-25T11:01:43+02:00</time>
      </trkpt>
      <trkpt lat="44.07794" lon="0.68727">
        <ele>123</ele>
        <time>2022-08-25T11:01:53+02:00</time>
      </trkpt>
      <trkpt lat="44.07805" lon="0.68741">
        <ele>122</ele>
        <time>2022-08-25T11:02:06+02:00</time>
      </trkpt>
      <trkpt lat="44.07813" lon="0.68757">
        <ele>121</ele>
        <time>2022-08-25T11:02:14+02:00</time>
      </trkpt>
      <trkpt lat="44.07817" lon="0.68775">
        <ele>119</ele>
        <time>2022-08-25T11:02:26+02:00</time>
      </trkpt>
      <trkpt lat="44.07824" lon="0.68791">
        <ele>118</ele>
        <time>2022-08-25T11:02:38+02:00</time>
      </trkpt>
      <trkpt lat="44.07831" lon="0.68807">
        <ele>117</ele>
        <time>2022-08-25T11:02:48+02:00</time>
      </trkpt>
      <trkpt lat="44.07836" lon="0.68826">
        <ele>116</ele>
        <time>2022-08-25T11:03:08+02:00</time>
      </trkpt>
      <trkpt lat="44.07843" lon="0.68843">
        <ele>115</ele>
        <time>2022-08-25T11:03:17+02:00</time>
      </trkpt>
      <trkpt lat="44.07852" lon="0.68861">
        <ele>114</ele>
        <time>2022-08-25T11:03:30+02:00</time>
      </trkpt>
      <trkpt lat="44.07868" lon="0.68894">
        <ele>112</ele>
        <time>2022-08-25T11:03:54+02:00</time>
      </trkpt>
      <trkpt lat="44.07873" lon="0.68913">
        <ele>112</ele>
        <time>2022-08-25T11:04:03+02:00</time>
      </trkpt>
      <trkpt lat="44.07884" lon="0.68928">
        <ele>112</ele>
        <time>2022-08-25T11:04:15+02:00</time>
      </trkpt>
      <trkpt lat="44.07896" lon="0.68939">
        <ele>112</ele>
        <time>2022-08-25T11:04:23+02:00</time>
      </trkpt>
      <trkpt lat="44.07909" lon="0.68949">
        <ele>112</ele>
        <time>2022-08-25T11:04:36+02:00</time>
      </trkpt>
      <trkpt lat="44.0792" lon="0.68964">
        <ele>112</ele>
        <time>2022-08-25T11:04:48+02:00</time>
      </trkpt>
      <trkpt lat="44.07923" lon="0.68984">
        <ele>111</ele>
        <time>2022-08-25T11:04:57+02:00</time>
      </trkpt>
      <trkpt lat="44.07926" lon="0.69003">
        <ele>110</ele>
        <time>2022-08-25T11:05:37+02:00</time>
      </trkpt>
      <trkpt lat="44.07924" lon="0.69022">
        <ele>110</ele>
        <time>2022-08-25T11:06:25+02:00</time>
      </trkpt>
      <trkpt lat="44.07926" lon="0.69042">
        <ele>109</ele>
        <time>2022-08-25T11:06:38+02:00</time>
      </trkpt>
      <trkpt lat="44.07929" lon="0.6906">
        <ele>108</ele>
        <time>2022-08-25T11:06:54+02:00</time>
      </trkpt>
      <trkpt lat="44.07929" lon="0.6908">
        <ele>107</ele>
        <time>2022-08-25T11:07:06+02:00</time>
      </trkpt>
      <trkpt lat="44.07925" lon="0.69099">
        <ele>107</ele>
        <time>2022-08-25T11:07:18+02:00</time>
      </trkpt>
      <trkpt lat="44.07923" lon="0.69118">
        <ele>106</ele>
        <time>2022-08-25T11:07:30+02:00</time>
      </trkpt>
      <trkpt lat="44.07921" lon="0.69138">
        <ele>105</ele>
        <time>2022-08-25T11:07:38+02:00</time>
      </trkpt>
      <trkpt lat="44.07919" lon="0.69157">
        <ele>104</ele>
        <time>2022-08-25T11:07:49+02:00</time>
      </trkpt>
      <trkpt lat="44.07913" lon="0.69175">
        <ele>103</ele>
        <time>2022-08-25T11:07:59+02:00</time>
      </trkpt>
      <trkpt lat="44.07911" lon="0.69194">
        <ele>102</ele>
        <time>2022-08-25T11:08:09+02:00</time>
      </trkpt>
      <trkpt lat="44.07912" lon="0.69213">
        <ele>100</ele>
        <time>2022-08-25T11:08:19+02:00</time>
      </trkpt>
      <trkpt lat="44.07908" lon="0.69232">
        <ele>99</ele>
        <time>2022-08-25T11:08:38+02:00</time>
      </trkpt>
      <trkpt lat="44.07896" lon="0.69243">
        <ele>98</ele>
        <time>2022-08-25T11:08:51+02:00</time>
      </trkpt>
      <trkpt lat="44.07889" lon="0.69259">
        <ele>97</ele>
        <time>2022-08-25T11:08:59+02:00</time>
      </trkpt>
      <trkpt lat="44.07881" lon="0.69275">
        <ele>97</ele>
        <time>2022-08-25T11:09:31+02:00</time>
      </trkpt>
      <trkpt lat="44.07891" lon="0.69289">
        <ele>96</ele>
        <time>2022-08-25T11:09:43+02:00</time>
      </trkpt>
      <trkpt lat="44.07903" lon="0.69298">
        <ele>96</ele>
        <time>2022-08-25T11:09:53+02:00</time>
      </trkpt>
      <trkpt lat="44.07908" lon="0.69316">
        <ele>96</ele>
        <time>2022-08-25T11:10:02+02:00</time>
      </trkpt>
      <trkpt lat="44.07922" lon="0.69323">
        <ele>95</ele>
        <time>2022-08-25T11:10:17+02:00</time>
      </trkpt>
      <trkpt lat="44.07933" lon="0.69334">
        <ele>95</ele>
        <time>2022-08-25T11:10:29+02:00</time>
      </trkpt>
      <trkpt lat="44.07944" lon="0.69347">
        <ele>96</ele>
        <time>2022-08-25T11:10:43+02:00</time>
      </trkpt>
      <trkpt lat="44.07936" lon="0.69365">
        <ele>97</ele>
        <time>2022-08-25T11:10:56+02:00</time>
      </trkpt>
      <trkpt lat="44.07925" lon="0.69378">
        <ele>98</ele>
        <time>2022-08-25T11:11:12+02:00</time>
      </trkpt>
      <trkpt lat="44.0791" lon="0.69384">
        <ele>99</ele>
        <time>2022-08-25T11:11:28+02:00</time>
      </trkpt>
      <trkpt lat="44.07897" lon="0.69391">
        <ele>99</ele>
        <time>2022-08-25T11:11:41+02:00</time>
      </trkpt>
      <trkpt lat="44.07886" lon="0.69403">
        <ele>99</ele>
        <time>2022-08-25T11:11:50+02:00</time>
      </trkpt>
      <trkpt lat="44.07872" lon="0.69409">
        <ele>99</ele>
        <time>2022-08-25T11:12:00+02:00</time>
      </trkpt>
      <trkpt lat="44.07858" lon="0.69415">
        <ele>99</ele>
        <time>2022-08-25T11:12:08+02:00</time>
      </trkpt>
      <trkpt lat="44.07845" lon="0.6942">
        <ele>99</ele>
        <time>2022-08-25T11:12:17+02:00</time>
      </trkpt>
      <trkpt lat="44.07831" lon="0.69421">
        <ele>98</ele>
        <time>2022-08-25T11:12:38+02:00</time>
      </trkpt>
      <trkpt lat="44.07818" lon="0.69427">
        <ele>99</ele>
        <time>2022-08-25T11:12:44+02:00</time>
      </trkpt>
      <trkpt lat="44.07806" lon="0.69438">
        <ele>99</ele>
        <time>2022-08-25T11:12:57+02:00</time>
      </trkpt>
      <trkpt lat="44.07792" lon="0.69449">
        <ele>100</ele>
        <time>2022-08-25T11:13:09+02:00</time>
      </trkpt>
      <trkpt lat="44.07778" lon="0.69457">
        <ele>100</ele>
        <time>2022-08-25T11:13:17+02:00</time>
      </trkpt>
      <trkpt lat="44.07764" lon="0.69462">
        <ele>100</ele>
        <time>2022-08-25T11:13:31+02:00</time>
      </trkpt>
      <trkpt lat="44.07749" lon="0.69467">
        <ele>100</ele>
        <time>2022-08-25T11:13:40+02:00</time>
      </trkpt>
      <trkpt lat="44.07735" lon="0.69462">
        <ele>99</ele>
        <time>2022-08-25T11:13:51+02:00</time>
      </trkpt>
      <trkpt lat="44.07721" lon="0.69463">
        <ele>99</ele>
        <time>2022-08-25T11:14:05+02:00</time>
      </trkpt>
      <trkpt lat="44.07706" lon="0.69471">
        <ele>100</ele>
        <time>2022-08-25T11:14:15+02:00</time>
      </trkpt>
      <trkpt lat="44.07694" lon="0.69481">
        <ele>100</ele>
        <time>2022-08-25T11:14:23+02:00</time>
      </trkpt>
      <trkpt lat="44.07681" lon="0.69492">
        <ele>100</ele>
        <time>2022-08-25T11:14:32+02:00</time>
      </trkpt>
      <trkpt lat="44.07668" lon="0.69498">
        <ele>100</ele>
        <time>2022-08-25T11:14:41+02:00</time>
      </trkpt>
      <trkpt lat="44.07653" lon="0.69509">
        <ele>100</ele>
        <time>2022-08-25T11:14:52+02:00</time>
      </trkpt>
      <trkpt lat="44.07647" lon="0.69526">
        <ele>100</ele>
        <time>2022-08-25T11:15:04+02:00</time>
      </trkpt>
      <trkpt lat="44.07635" lon="0.69535">
        <ele>100</ele>
        <time>2022-08-25T11:15:30+02:00</time>
      </trkpt>
      <trkpt lat="44.07624" lon="0.69548">
        <ele>100</ele>
        <time>2022-08-25T11:15:41+02:00</time>
      </trkpt>
      <trkpt lat="44.07612" lon="0.69557">
        <ele>99</ele>
        <time>2022-08-25T11:15:53+02:00</time>
      </trkpt>
      <trkpt lat="44.07602" lon="0.6957">
        <ele>99</ele>
        <time>2022-08-25T11:16:04+02:00</time>
      </trkpt>
      <trkpt lat="44.07591" lon="0.69584">
        <ele>99</ele>
        <time>2022-08-25T11:16:16+02:00</time>
      </trkpt>
      <trkpt lat="44.07577" lon="0.69591">
        <ele>98</ele>
        <time>2022-08-25T11:16:33+02:00</time>
      </trkpt>
      <trkpt lat="44.07565" lon="0.69602">
        <ele>99</ele>
        <time>2022-08-25T11:16:46+02:00</time>
      </trkpt>
      <trkpt lat="44.07553" lon="0.69615">
        <ele>100</ele>
        <time>2022-08-25T11:16:59+02:00</time>
      </trkpt>
      <trkpt lat="44.07546" lon="0.69633">
        <ele>100</ele>
        <time>2022-08-25T11:17:07+02:00</time>
      </trkpt>
      <trkpt lat="44.07539" lon="0.69651">
        <ele>101</ele>
        <time>2022-08-25T11:17:13+02:00</time>
      </trkpt>
      <trkpt lat="44.07534" lon="0.69669">
        <ele>101</ele>
        <time>2022-08-25T11:17:22+02:00</time>
      </trkpt>
      <trkpt lat="44.07538" lon="0.69688">
        <ele>101</ele>
        <time>2022-08-25T11:17:33+02:00</time>
      </trkpt>
      <trkpt lat="44.07537" lon="0.69725">
        <ele>101</ele>
        <time>2022-08-25T11:17:52+02:00</time>
      </trkpt>
      <trkpt lat="44.07536" lon="0.69744">
        <ele>101</ele>
        <time>2022-08-25T11:18:05+02:00</time>
      </trkpt>
      <trkpt lat="44.07533" lon="0.69763">
        <ele>101</ele>
        <time>2022-08-25T11:18:16+02:00</time>
      </trkpt>
      <trkpt lat="44.07531" lon="0.69783">
        <ele>102</ele>
        <time>2022-08-25T11:18:27+02:00</time>
      </trkpt>
      <trkpt lat="44.07525" lon="0.69801">
        <ele>102</ele>
        <time>2022-08-25T11:18:36+02:00</time>
      </trkpt>
      <trkpt lat="44.07522" lon="0.6982">
        <ele>102</ele>
        <time>2022-08-25T11:18:47+02:00</time>
      </trkpt>
      <trkpt lat="44.07514" lon="0.69837">
        <ele>101</ele>
        <time>2022-08-25T11:18:59+02:00</time>
      </trkpt>
      <trkpt lat="44.07505" lon="0.69854">
        <ele>101</ele>
        <time>2022-08-25T11:19:10+02:00</time>
      </trkpt>
      <trkpt lat="44.07499" lon="0.69872">
        <ele>101</ele>
        <time>2022-08-25T11:19:22+02:00</time>
      </trkpt>
      <trkpt lat="44.07493" lon="0.69888">
        <ele>102</ele>
        <time>2022-08-25T11:19:31+02:00</time>
      </trkpt>
      <trkpt lat="44.07486" lon="0.69906">
        <ele>102</ele>
        <time>2022-08-25T11:19:39+02:00</time>
      </trkpt>
      <trkpt lat="44.07483" lon="0.69926">
        <ele>102</ele>
        <time>2022-08-25T11:19:51+02:00</time>
      </trkpt>
      <trkpt lat="44.07474" lon="0.69939">
        <ele>103</ele>
        <time>2022-08-25T11:21:43+02:00</time>
      </trkpt>
      <trkpt lat="44.07489" lon="0.69939">
        <ele>102</ele>
        <time>2022-08-25T11:22:02+02:00</time>
      </trkpt>
      <trkpt lat="44.07503" lon="0.69941">
        <ele>102</ele>
        <time>2022-08-25T11:22:13+02:00</time>
      </trkpt>
      <trkpt lat="44.07512" lon="0.69955">
        <ele>104</ele>
        <time>2022-08-25T11:23:31+02:00</time>
      </trkpt>
      <trkpt lat="44.07525" lon="0.69964">
        <ele>105</ele>
        <time>2022-08-25T11:23:44+02:00</time>
      </trkpt>
      <trkpt lat="44.07538" lon="0.69974">
        <ele>107</ele>
        <time>2022-08-25T11:24:00+02:00</time>
      </trkpt>
      <trkpt lat="44.0755" lon="0.69982">
        <ele>109</ele>
        <time>2022-08-25T11:24:13+02:00</time>
      </trkpt>
      <trkpt lat="44.07563" lon="0.6999">
        <ele>111</ele>
        <time>2022-08-25T11:24:24+02:00</time>
      </trkpt>
      <trkpt lat="44.07575" lon="0.69998">
        <ele>113</ele>
        <time>2022-08-25T11:24:36+02:00</time>
      </trkpt>
      <trkpt lat="44.07588" lon="0.70008">
        <ele>115</ele>
        <time>2022-08-25T11:25:13+02:00</time>
      </trkpt>
      <trkpt lat="44.07599" lon="0.70017">
        <ele>117</ele>
        <time>2022-08-25T11:25:23+02:00</time>
      </trkpt>
      <trkpt lat="44.07611" lon="0.70028">
        <ele>119</ele>
        <time>2022-08-25T11:25:37+02:00</time>
      </trkpt>
      <trkpt lat="44.07622" lon="0.70039">
        <ele>121</ele>
        <time>2022-08-25T11:25:51+02:00</time>
      </trkpt>
      <trkpt lat="44.07635" lon="0.70048">
        <ele>124</ele>
        <time>2022-08-25T11:26:04+02:00</time>
      </trkpt>
      <trkpt lat="44.07647" lon="0.70056">
        <ele>126</ele>
        <time>2022-08-25T11:26:15+02:00</time>
      </trkpt>
      <trkpt lat="44.0766" lon="0.70063">
        <ele>128</ele>
        <time>2022-08-25T11:26:57+02:00</time>
      </trkpt>
      <trkpt lat="44.07673" lon="0.70073">
        <ele>130</ele>
        <time>2022-08-25T11:27:12+02:00</time>
      </trkpt>
      <trkpt lat="44.07685" lon="0.70083">
        <ele>133</ele>
        <time>2022-08-25T11:27:24+02:00</time>
      </trkpt>
      <trkpt lat="44.07697" lon="0.70094">
        <ele>134</ele>
        <time>2022-08-25T11:27:36+02:00</time>
      </trkpt>
      <trkpt lat="44.07709" lon="0.70102">
        <ele>136</ele>
        <time>2022-08-25T11:27:47+02:00</time>
      </trkpt>
      <trkpt lat="44.07721" lon="0.70112">
        <ele>138</ele>
        <time>2022-08-25T11:28:00+02:00</time>
      </trkpt>
      <trkpt lat="44.07734" lon="0.70125">
        <ele>140</ele>
        <time>2022-08-25T11:28:35+02:00</time>
      </trkpt>
      <trkpt lat="44.07746" lon="0.70134">
        <ele>142</ele>
        <time>2022-08-25T11:28:45+02:00</time>
      </trkpt>
      <trkpt lat="44.07758" lon="0.70145">
        <ele>143</ele>
        <time>2022-08-25T11:28:55+02:00</time>
      </trkpt>
      <trkpt lat="44.07767" lon="0.7016">
        <ele>143</ele>
        <time>2022-08-25T11:29:11+02:00</time>
      </trkpt>
      <trkpt lat="44.0778" lon="0.70171">
        <ele>143</ele>
        <time>2022-08-25T11:29:21+02:00</time>
      </trkpt>
      <trkpt lat="44.07792" lon="0.70183">
        <ele>143</ele>
        <time>2022-08-25T11:29:31+02:00</time>
      </trkpt>
      <trkpt lat="44.07802" lon="0.70196">
        <ele>144</ele>
        <time>2022-08-25T11:29:40+02:00</time>
      </trkpt>
      <trkpt lat="44.07814" lon="0.70207">
        <ele>144</ele>
        <time>2022-08-25T11:29:50+02:00</time>
      </trkpt>
      <trkpt lat="44.07825" lon="0.70219">
        <ele>145</ele>
        <time>2022-08-25T11:29:58+02:00</time>
      </trkpt>
      <trkpt lat="44.07837" lon="0.70231">
        <ele>146</ele>
        <time>2022-08-25T11:30:08+02:00</time>
      </trkpt>
      <trkpt lat="44.07846" lon="0.70246">
        <ele>148</ele>
        <time>2022-08-25T11:30:18+02:00</time>
      </trkpt>
      <trkpt lat="44.07856" lon="0.70258">
        <ele>149</ele>
        <time>2022-08-25T11:30:27+02:00</time>
      </trkpt>
      <trkpt lat="44.07864" lon="0.70273">
        <ele>151</ele>
        <time>2022-08-25T11:30:37+02:00</time>
      </trkpt>
      <trkpt lat="44.07874" lon="0.70289">
        <ele>152</ele>
        <time>2022-08-25T11:30:48+02:00</time>
      </trkpt>
      <trkpt lat="44.0788" lon="0.70306">
        <ele>154</ele>
        <time>2022-08-25T11:30:59+02:00</time>
      </trkpt>
      <trkpt lat="44.07888" lon="0.70323">
        <ele>156</ele>
        <time>2022-08-25T11:31:09+02:00</time>
      </trkpt>
      <trkpt lat="44.07894" lon="0.7034">
        <ele>157</ele>
        <time>2022-08-25T11:31:21+02:00</time>
      </trkpt>
      <trkpt lat="44.07906" lon="0.70351">
        <ele>158</ele>
        <time>2022-08-25T11:31:43+02:00</time>
      </trkpt>
      <trkpt lat="44.07916" lon="0.70366">
        <ele>158</ele>
        <time>2022-08-25T11:36:25+02:00</time>
      </trkpt>
      <trkpt lat="44.07929" lon="0.70369">
        <ele>157</ele>
        <time>2022-08-25T11:36:46+02:00</time>
      </trkpt>
      <trkpt lat="44.07943" lon="0.70365">
        <ele>157</ele>
        <time>2022-08-25T11:36:56+02:00</time>
      </trkpt>
      <trkpt lat="44.07957" lon="0.70361">
        <ele>156</ele>
        <time>2022-08-25T11:37:12+02:00</time>
      </trkpt>
      <trkpt lat="44.07971" lon="0.70363">
        <ele>156</ele>
        <time>2022-08-25T11:37:23+02:00</time>
      </trkpt>
      <trkpt lat="44.07985" lon="0.70362">
        <ele>155</ele>
        <time>2022-08-25T11:37:33+02:00</time>
      </trkpt>
      <trkpt lat="44.07999" lon="0.70359">
        <ele>154</ele>
        <time>2022-08-25T11:37:42+02:00</time>
      </trkpt>
      <trkpt lat="44.08012" lon="0.70357">
        <ele>154</ele>
        <time>2022-08-25T11:37:54+02:00</time>
      </trkpt>
      <trkpt lat="44.08026" lon="0.70352">
        <ele>154</ele>
        <time>2022-08-25T11:38:04+02:00</time>
      </trkpt>
      <trkpt lat="44.08039" lon="0.70345">
        <ele>154</ele>
        <time>2022-08-25T11:38:16+02:00</time>
      </trkpt>
      <trkpt lat="44.08051" lon="0.70333">
        <ele>154</ele>
        <time>2022-08-25T11:38:27+02:00</time>
      </trkpt>
      <trkpt lat="44.08065" lon="0.70326">
        <ele>153</ele>
        <time>2022-08-25T11:38:39+02:00</time>
      </trkpt>
      <trkpt lat="44.08077" lon="0.70315">
        <ele>152</ele>
        <time>2022-08-25T11:38:49+02:00</time>
      </trkpt>
      <trkpt lat="44.08089" lon="0.70304">
        <ele>151</ele>
        <time>2022-08-25T11:38:59+02:00</time>
      </trkpt>
      <trkpt lat="44.081" lon="0.70291">
        <ele>151</ele>
        <time>2022-08-25T11:39:14+02:00</time>
      </trkpt>
      <trkpt lat="44.08112" lon="0.70281">
        <ele>151</ele>
        <time>2022-08-25T11:39:34+02:00</time>
      </trkpt>
      <trkpt lat="44.08125" lon="0.70272">
        <ele>151</ele>
        <time>2022-08-25T11:39:49+02:00</time>
      </trkpt>
      <trkpt lat="44.08133" lon="0.70257">
        <ele>152</ele>
        <time>2022-08-25T11:40:12+02:00</time>
      </trkpt>
      <trkpt lat="44.08146" lon="0.70249">
        <ele>153</ele>
        <time>2022-08-25T11:40:24+02:00</time>
      </trkpt>
      <trkpt lat="44.08158" lon="0.70238">
        <ele>153</ele>
        <time>2022-08-25T11:40:36+02:00</time>
      </trkpt>
      <trkpt lat="44.08167" lon="0.70222">
        <ele>153</ele>
        <time>2022-08-25T11:40:49+02:00</time>
      </trkpt>
      <trkpt lat="44.0817" lon="0.70203">
        <ele>153</ele>
        <time>2022-08-25T11:41:06+02:00</time>
      </trkpt>
      <trkpt lat="44.08183" lon="0.70195">
        <ele>153</ele>
        <time>2022-08-25T11:41:19+02:00</time>
      </trkpt>
      <trkpt lat="44.08196" lon="0.70187">
        <ele>153</ele>
        <time>2022-08-25T11:41:30+02:00</time>
      </trkpt>
      <trkpt lat="44.08203" lon="0.70171">
        <ele>153</ele>
        <time>2022-08-25T11:41:41+02:00</time>
      </trkpt>
      <trkpt lat="44.08213" lon="0.70157">
        <ele>154</ele>
        <time>2022-08-25T11:42:02+02:00</time>
      </trkpt>
      <trkpt lat="44.08218" lon="0.70139">
        <ele>154</ele>
        <time>2022-08-25T11:42:14+02:00</time>
      </trkpt>
      <trkpt lat="44.08228" lon="0.70123">
        <ele>155</ele>
        <time>2022-08-25T11:42:25+02:00</time>
      </trkpt>
      <trkpt lat="44.08232" lon="0.70104">
        <ele>155</ele>
        <time>2022-08-25T11:42:36+02:00</time>
      </trkpt>
      <trkpt lat="44.08235" lon="0.70086">
        <ele>156</ele>
        <time>2022-08-25T11:42:49+02:00</time>
      </trkpt>
      <trkpt lat="44.0824" lon="0.70068">
        <ele>157</ele>
        <time>2022-08-25T11:43:02+02:00</time>
      </trkpt>
      <trkpt lat="44.08247" lon="0.7005">
        <ele>157</ele>
        <time>2022-08-25T11:43:18+02:00</time>
      </trkpt>
      <trkpt lat="44.08254" lon="0.70032">
        <ele>157</ele>
        <time>2022-08-25T11:43:34+02:00</time>
      </trkpt>
      <trkpt lat="44.08262" lon="0.70017">
        <ele>158</ele>
        <time>2022-08-25T11:43:45+02:00</time>
      </trkpt>
      <trkpt lat="44.0827" lon="0.69999">
        <ele>158</ele>
        <time>2022-08-25T11:43:58+02:00</time>
      </trkpt>
      <trkpt lat="44.08275" lon="0.69982">
        <ele>158</ele>
        <time>2022-08-25T11:44:12+02:00</time>
      </trkpt>
      <trkpt lat="44.08283" lon="0.69966">
        <ele>158</ele>
        <time>2022-08-25T11:44:29+02:00</time>
      </trkpt>
      <trkpt lat="44.08294" lon="0.69956">
        <ele>159</ele>
        <time>2022-08-25T11:44:39+02:00</time>
      </trkpt>
      <trkpt lat="44.08302" lon="0.69938">
        <ele>160</ele>
        <time>2022-08-25T11:44:49+02:00</time>
      </trkpt>
      <trkpt lat="44.08305" lon="0.69919">
        <ele>159</ele>
        <time>2022-08-25T11:44:59+02:00</time>
      </trkpt>
      <trkpt lat="44.08336" lon="0.69884">
        <ele>162</ele>
        <time>2022-08-25T11:45:12+02:00</time>
      </trkpt>
      <trkpt lat="44.08358" lon="0.69856">
        <ele>157</ele>
        <time>2022-08-25T11:45:22+02:00</time>
      </trkpt>
      <trkpt lat="44.0837" lon="0.69886">
        <ele>157</ele>
        <time>2022-08-25T11:45:53+02:00</time>
      </trkpt>
      <trkpt lat="44.08368" lon="0.69846">
        <ele>155</ele>
        <time>2022-08-25T11:45:59+02:00</time>
        <extensions>
          <visugpx:TrkExtension xmlns:visugpx="https://www.visugpx.com/editgpx/">
            <visugpx:node>1</visugpx:node>
            </visugpx:TrkExtension>
        </extensions>
      </trkpt>
      <trkpt lat="44.08399" lon="0.69866">
        <ele>153.2</ele>
        <time>2022-08-25T09:07:28+02:00</time>
      </trkpt>
    </trkseg>
  </trk>
</gpx>